sensor_id;sensor_type;location;lat;lon;timestamp;P1;durP1;ratioP1;P2;durP2;ratioP2
61015;SDS011;46902;52.920;6.536;2023-03-24T00:02:05;12.75;;;5.18;;
61015;SDS011;46902;52.920;6.536;2023-03-24T00:04:31;12.88;;;4.38;;
61015;SDS011;46902;52.920;6.536;2023-03-24T00:06:58;10.60;;;4.18;;
61015;SDS011;46902;52.920;6.536;2023-03-24T00:09:26;14.75;;;4.50;;
61015;SDS011;46902;52.920;6.536;2023-03-24T00:11:55;9.10;;;4.65;;
61015;SDS011;46902;52.920;6.536;2023-03-24T00:14:22;9.55;;;4.43;;
61015;SDS011;46902;52.920;6.536;2023-03-24T00:16:48;8.93;;;3.95;;
61015;SDS011;46902;52.920;6.536;2023-03-24T00:19:14;9.43;;;4.28;;
61015;SDS011;46902;52.920;6.536;2023-03-24T00:21:41;9.80;;;3.90;;
61015;SDS011;46902;52.920;6.536;2023-03-24T00:24:08;13.27;;;4.68;;
61015;SDS011;46902;52.920;6.536;2023-03-24T00:26:36;9.60;;;4.45;;
61015;SDS011;46902;52.920;6.536;2023-03-24T00:29:03;10.15;;;3.90;;
61015;SDS011;46902;52.920;6.536;2023-03-24T00:31:33;10.77;;;4.40;;
61015;SDS011;46902;52.920;6.536;2023-03-24T00:34:03;11.02;;;4.50;;
61015;SDS011;46902;52.920;6.536;2023-03-24T00:36:31;12.15;;;4.22;;
61015;SDS011;46902;52.920;6.536;2023-03-24T00:38:57;9.63;;;4.40;;
61015;SDS011;46902;52.920;6.536;2023-03-24T00:41:23;8.02;;;4.10;;
61015;SDS011;46902;52.920;6.536;2023-03-24T00:43:52;8.80;;;4.10;;
61015;SDS011;46902;52.920;6.536;2023-03-24T00:46:19;8.45;;;4.10;;
61015;SDS011;46902;52.920;6.536;2023-03-24T00:48:58;10.73;;;4.38;;
61015;SDS011;46902;52.920;6.536;2023-03-24T00:51:30;7.95;;;4.20;;
61015;SDS011;46902;52.920;6.536;2023-03-24T00:53:58;11.90;;;4.22;;
61015;SDS011;46902;52.920;6.536;2023-03-24T00:56:26;10.05;;;4.30;;
61015;SDS011;46902;52.920;6.536;2023-03-24T00:58:53;10.55;;;4.72;;
61015;SDS011;46902;52.920;6.536;2023-03-24T01:01:21;11.10;;;5.25;;
61015;SDS011;46902;52.920;6.536;2023-03-24T01:03:48;8.85;;;4.30;;
61015;SDS011;46902;52.920;6.536;2023-03-24T01:06:15;12.00;;;4.82;;
61015;SDS011;46902;52.920;6.536;2023-03-24T01:08:42;9.90;;;4.22;;
61015;SDS011;46902;52.920;6.536;2023-03-24T01:11:09;8.88;;;4.13;;
61015;SDS011;46902;52.920;6.536;2023-03-24T01:13:37;9.02;;;4.30;;
61015;SDS011;46902;52.920;6.536;2023-03-24T01:16:03;6.10;;;3.40;;
61015;SDS011;46902;52.920;6.536;2023-03-24T01:18:30;8.57;;;4.32;;
61015;SDS011;46902;52.920;6.536;2023-03-24T01:20:56;9.75;;;4.25;;
61015;SDS011;46902;52.920;6.536;2023-03-24T01:23:23;8.57;;;4.05;;
61015;SDS011;46902;52.920;6.536;2023-03-24T01:25:50;8.32;;;3.97;;
61015;SDS011;46902;52.920;6.536;2023-03-24T01:28:18;9.20;;;3.85;;
61015;SDS011;46902;52.920;6.536;2023-03-24T01:30:49;7.97;;;3.47;;
61015;SDS011;46902;52.920;6.536;2023-03-24T01:33:16;9.40;;;3.75;;
61015;SDS011;46902;52.920;6.536;2023-03-24T01:35:41;8.98;;;3.80;;
61015;SDS011;46902;52.920;6.536;2023-03-24T01:38:09;9.93;;;3.85;;
61015;SDS011;46902;52.920;6.536;2023-03-24T01:40:37;9.85;;;4.15;;
61015;SDS011;46902;52.920;6.536;2023-03-24T01:43:05;9.98;;;4.45;;
61015;SDS011;46902;52.920;6.536;2023-03-24T01:46:18;8.52;;;3.90;;
61015;SDS011;46902;52.920;6.536;2023-03-24T01:53:51;9.15;;;4.15;;
61015;SDS011;46902;52.920;6.536;2023-03-24T01:56:23;8.65;;;4.30;;
61015;SDS011;46902;52.920;6.536;2023-03-24T01:58:52;7.93;;;3.63;;
61015;SDS011;46902;52.920;6.536;2023-03-24T02:01:22;8.65;;;4.10;;
61015;SDS011;46902;52.920;6.536;2023-03-24T02:03:53;7.07;;;4.28;;
61015;SDS011;46902;52.920;6.536;2023-03-24T02:06:20;6.28;;;3.17;;
61015;SDS011;46902;52.920;6.536;2023-03-24T02:11:21;7.43;;;3.22;;
61015;SDS011;46902;52.920;6.536;2023-03-24T02:13:48;6.80;;;3.50;;
61015;SDS011;46902;52.920;6.536;2023-03-24T02:32:51;7.63;;;3.17;;
61015;SDS011;46902;52.920;6.536;2023-03-24T02:36:08;6.45;;;3.60;;
61015;SDS011;46902;52.920;6.536;2023-03-24T02:54:39;5.57;;;3.28;;
61015;SDS011;46902;52.920;6.536;2023-03-24T02:57:15;5.68;;;3.38;;
61015;SDS011;46902;52.920;6.536;2023-03-24T02:59:48;7.85;;;4.10;;
61015;SDS011;46902;52.920;6.536;2023-03-24T03:02:25;6.03;;;3.22;;
61015;SDS011;46902;52.920;6.536;2023-03-24T03:04:59;6.68;;;3.38;;
61015;SDS011;46902;52.920;6.536;2023-03-24T03:07:31;5.95;;;3.38;;
61015;SDS011;46902;52.920;6.536;2023-03-24T03:10:03;6.45;;;3.42;;
61015;SDS011;46902;52.920;6.536;2023-03-24T03:12:41;5.97;;;3.13;;
61015;SDS011;46902;52.920;6.536;2023-03-24T03:15:15;7.30;;;3.17;;
61015;SDS011;46902;52.920;6.536;2023-03-24T03:17:50;6.97;;;3.50;;
61015;SDS011;46902;52.920;6.536;2023-03-24T03:20:24;6.53;;;3.38;;
61015;SDS011;46902;52.920;6.536;2023-03-24T03:25:24;5.20;;;2.85;;
61015;SDS011;46902;52.920;6.536;2023-03-24T03:27:53;7.13;;;3.05;;
61015;SDS011;46902;52.920;6.536;2023-03-24T03:30:22;6.32;;;3.08;;
61015;SDS011;46902;52.920;6.536;2023-03-24T03:33:04;6.97;;;3.28;;
61015;SDS011;46902;52.920;6.536;2023-03-24T03:41:24;4.70;;;2.45;;
61015;SDS011;46902;52.920;6.536;2023-03-24T03:43:50;3.30;;;2.03;;
61015;SDS011;46902;52.920;6.536;2023-03-24T03:46:16;3.28;;;1.75;;
61015;SDS011;46902;52.920;6.536;2023-03-24T03:48:43;4.03;;;1.83;;
61015;SDS011;46902;52.920;6.536;2023-03-24T03:51:10;3.95;;;1.60;;
61015;SDS011;46902;52.920;6.536;2023-03-24T03:56:17;3.63;;;1.73;;
61015;SDS011;46902;52.920;6.536;2023-03-24T03:58:47;3.53;;;1.67;;
61015;SDS011;46902;52.920;6.536;2023-03-24T04:01:17;5.40;;;1.50;;
61015;SDS011;46902;52.920;6.536;2023-03-24T04:03:55;4.88;;;1.77;;
61015;SDS011;46902;52.920;6.536;2023-03-24T04:12:11;6.70;;;1.70;;
61015;SDS011;46902;52.920;6.536;2023-03-24T04:15:07;7.70;;;2.03;;
61015;SDS011;46902;52.920;6.536;2023-03-24T04:20:45;9.20;;;1.88;;
61015;SDS011;46902;52.920;6.536;2023-03-24T04:24:04;6.25;;;1.70;;
61015;SDS011;46902;52.920;6.536;2023-03-24T04:29:30;6.75;;;1.65;;
61015;SDS011;46902;52.920;6.536;2023-03-24T04:34:54;9.25;;;1.95;;
61015;SDS011;46902;52.920;6.536;2023-03-24T04:37:27;6.85;;;1.52;;
61015;SDS011;46902;52.920;6.536;2023-03-24T04:39:56;7.60;;;1.45;;
61015;SDS011;46902;52.920;6.536;2023-03-24T04:42:33;7.78;;;1.67;;
61015;SDS011;46902;52.920;6.536;2023-03-24T04:45:11;9.52;;;1.90;;
61015;SDS011;46902;52.920;6.536;2023-03-24T04:47:42;8.65;;;2.05;;
61015;SDS011;46902;52.920;6.536;2023-03-24T04:50:26;12.45;;;2.40;;
61015;SDS011;46902;52.920;6.536;2023-03-24T04:53:07;10.23;;;2.40;;
61015;SDS011;46902;52.920;6.536;2023-03-24T04:58:17;10.93;;;1.95;;
61015;SDS011;46902;52.920;6.536;2023-03-24T05:00:44;11.93;;;2.28;;
61015;SDS011;46902;52.920;6.536;2023-03-24T05:03:11;8.77;;;2.03;;
61015;SDS011;46902;52.920;6.536;2023-03-24T05:05:44;8.73;;;2.08;;
61015;SDS011;46902;52.920;6.536;2023-03-24T05:08:12;11.27;;;3.15;;
61015;SDS011;46902;52.920;6.536;2023-03-24T05:10:39;13.43;;;2.40;;
61015;SDS011;46902;52.920;6.536;2023-03-24T05:13:05;9.27;;;2.13;;
61015;SDS011;46902;52.920;6.536;2023-03-24T05:15:31;14.73;;;2.65;;
61015;SDS011;46902;52.920;6.536;2023-03-24T05:17:57;12.20;;;2.05;;
61015;SDS011;46902;52.920;6.536;2023-03-24T05:20:23;11.85;;;2.35;;
61015;SDS011;46902;52.920;6.536;2023-03-24T05:22:50;12.02;;;3.05;;
61015;SDS011;46902;52.920;6.536;2023-03-24T05:25:16;17.30;;;2.72;;
61015;SDS011;46902;52.920;6.536;2023-03-24T05:27:43;15.60;;;2.47;;
61015;SDS011;46902;52.920;6.536;2023-03-24T05:30:08;17.75;;;2.88;;
61015;SDS011;46902;52.920;6.536;2023-03-24T05:32:34;12.10;;;2.22;;
61015;SDS011;46902;52.920;6.536;2023-03-24T05:35:00;14.77;;;2.33;;
61015;SDS011;46902;52.920;6.536;2023-03-24T05:37:26;13.20;;;2.72;;
61015;SDS011;46902;52.920;6.536;2023-03-24T05:39:52;12.25;;;2.97;;
61015;SDS011;46902;52.920;6.536;2023-03-24T05:42:18;15.18;;;3.03;;
61015;SDS011;46902;52.920;6.536;2023-03-24T05:44:44;17.48;;;3.55;;
61015;SDS011;46902;52.920;6.536;2023-03-24T05:47:10;13.25;;;3.15;;
61015;SDS011;46902;52.920;6.536;2023-03-24T05:49:39;12.82;;;2.60;;
61015;SDS011;46902;52.920;6.536;2023-03-24T05:52:07;11.20;;;2.53;;
61015;SDS011;46902;52.920;6.536;2023-03-24T05:54:34;9.77;;;2.60;;
61015;SDS011;46902;52.920;6.536;2023-03-24T05:57:00;13.65;;;2.92;;
61015;SDS011;46902;52.920;6.536;2023-03-24T05:59:26;10.98;;;2.50;;
61015;SDS011;46902;52.920;6.536;2023-03-24T06:01:52;14.15;;;3.05;;
61015;SDS011;46902;52.920;6.536;2023-03-24T06:04:21;10.30;;;2.13;;
61015;SDS011;46902;52.920;6.536;2023-03-24T06:06:47;14.27;;;2.55;;
61015;SDS011;46902;52.920;6.536;2023-03-24T06:09:12;14.85;;;2.13;;
61015;SDS011;46902;52.920;6.536;2023-03-24T06:11:41;12.07;;;2.58;;
61015;SDS011;46902;52.920;6.536;2023-03-24T06:14:07;11.85;;;2.30;;
61015;SDS011;46902;52.920;6.536;2023-03-24T06:16:33;15.52;;;2.35;;
61015;SDS011;46902;52.920;6.536;2023-03-24T06:19:05;12.93;;;2.38;;
61015;SDS011;46902;52.920;6.536;2023-03-24T06:21:34;10.35;;;2.42;;
61015;SDS011;46902;52.920;6.536;2023-03-24T06:23:59;12.65;;;2.38;;
61015;SDS011;46902;52.920;6.536;2023-03-24T06:26:25;11.05;;;2.55;;
61015;SDS011;46902;52.920;6.536;2023-03-24T06:28:54;11.15;;;2.28;;
61015;SDS011;46902;52.920;6.536;2023-03-24T06:31:20;8.95;;;2.33;;
61015;SDS011;46902;52.920;6.536;2023-03-24T06:33:47;17.00;;;2.55;;
61015;SDS011;46902;52.920;6.536;2023-03-24T06:36:14;12.82;;;2.45;;
61015;SDS011;46902;52.920;6.536;2023-03-24T06:38:40;13.32;;;2.35;;
61015;SDS011;46902;52.920;6.536;2023-03-24T06:41:06;11.55;;;2.30;;
61015;SDS011;46902;52.920;6.536;2023-03-24T06:43:32;14.02;;;2.42;;
61015;SDS011;46902;52.920;6.536;2023-03-24T06:45:58;18.65;;;3.35;;
61015;SDS011;46902;52.920;6.536;2023-03-24T06:48:24;13.77;;;2.58;;
61015;SDS011;46902;52.920;6.536;2023-03-24T06:50:51;11.23;;;2.22;;
61015;SDS011;46902;52.920;6.536;2023-03-24T06:53:18;9.80;;;2.25;;
61015;SDS011;46902;52.920;6.536;2023-03-24T06:55:46;12.93;;;2.92;;
61015;SDS011;46902;52.920;6.536;2023-03-24T06:58:12;17.08;;;3.63;;
61015;SDS011;46902;52.920;6.536;2023-03-24T07:00:39;15.07;;;2.60;;
61015;SDS011;46902;52.920;6.536;2023-03-24T07:03:05;13.07;;;2.45;;
61015;SDS011;46902;52.920;6.536;2023-03-24T07:05:32;12.43;;;2.45;;
61015;SDS011;46902;52.920;6.536;2023-03-24T07:08:02;15.32;;;2.90;;
61015;SDS011;46902;52.920;6.536;2023-03-24T07:10:28;16.77;;;3.38;;
61015;SDS011;46902;52.920;6.536;2023-03-24T07:12:54;14.30;;;3.28;;
61015;SDS011;46902;52.920;6.536;2023-03-24T07:15:19;17.83;;;3.13;;
61015;SDS011;46902;52.920;6.536;2023-03-24T07:17:45;13.38;;;2.35;;
61015;SDS011;46902;52.920;6.536;2023-03-24T07:20:11;16.38;;;2.95;;
61015;SDS011;46902;52.920;6.536;2023-03-24T07:22:36;19.30;;;2.72;;
61015;SDS011;46902;52.920;6.536;2023-03-24T07:25:03;15.82;;;2.72;;
61015;SDS011;46902;52.920;6.536;2023-03-24T07:27:30;19.35;;;2.97;;
61015;SDS011;46902;52.920;6.536;2023-03-24T07:30:02;20.52;;;3.92;;
61015;SDS011;46902;52.920;6.536;2023-03-24T07:32:28;16.35;;;3.38;;
61015;SDS011;46902;52.920;6.536;2023-03-24T07:34:58;18.77;;;3.35;;
61015;SDS011;46902;52.920;6.536;2023-03-24T07:37:25;18.55;;;2.95;;
61015;SDS011;46902;52.920;6.536;2023-03-24T07:39:50;13.15;;;3.28;;
61015;SDS011;46902;52.920;6.536;2023-03-24T07:42:16;24.67;;;3.67;;
61015;SDS011;46902;52.920;6.536;2023-03-24T07:44:42;20.25;;;3.13;;
61015;SDS011;46902;52.920;6.536;2023-03-24T07:47:08;16.02;;;2.97;;
61015;SDS011;46902;52.920;6.536;2023-03-24T07:49:35;17.88;;;2.97;;
61015;SDS011;46902;52.920;6.536;2023-03-24T07:52:00;20.15;;;3.08;;
61015;SDS011;46902;52.920;6.536;2023-03-24T07:54:30;20.67;;;3.40;;
61015;SDS011;46902;52.920;6.536;2023-03-24T07:56:57;24.23;;;3.85;;
61015;SDS011;46902;52.920;6.536;2023-03-24T07:59:23;23.30;;;3.95;;
61015;SDS011;46902;52.920;6.536;2023-03-24T08:01:49;22.17;;;3.58;;
61015;SDS011;46902;52.920;6.536;2023-03-24T08:04:15;20.45;;;3.75;;
61015;SDS011;46902;52.920;6.536;2023-03-24T08:06:44;18.50;;;3.35;;
61015;SDS011;46902;52.920;6.536;2023-03-24T08:09:10;22.73;;;3.92;;
61015;SDS011;46902;52.920;6.536;2023-03-24T08:11:36;21.63;;;3.83;;
61015;SDS011;46902;52.920;6.536;2023-03-24T08:14:02;18.88;;;3.15;;
61015;SDS011;46902;52.920;6.536;2023-03-24T08:16:28;17.50;;;3.20;;
61015;SDS011;46902;52.920;6.536;2023-03-24T08:18:54;24.42;;;4.10;;
61015;SDS011;46902;52.920;6.536;2023-03-24T08:21:22;22.35;;;4.30;;
61015;SDS011;46902;52.920;6.536;2023-03-24T08:23:48;20.70;;;3.47;;
61015;SDS011;46902;52.920;6.536;2023-03-24T08:26:14;18.90;;;3.10;;
61015;SDS011;46902;52.920;6.536;2023-03-24T08:28:40;17.13;;;3.53;;
61015;SDS011;46902;52.920;6.536;2023-03-24T08:31:06;24.42;;;3.85;;
61015;SDS011;46902;52.920;6.536;2023-03-24T08:33:32;22.30;;;3.50;;
61015;SDS011;46902;52.920;6.536;2023-03-24T08:35:58;26.65;;;4.13;;
61015;SDS011;46902;52.920;6.536;2023-03-24T08:38:25;18.60;;;3.95;;
61015;SDS011;46902;52.920;6.536;2023-03-24T08:40:58;23.48;;;4.05;;
61015;SDS011;46902;52.920;6.536;2023-03-24T08:43:26;18.77;;;3.20;;
61015;SDS011;46902;52.920;6.536;2023-03-24T08:45:54;19.98;;;3.47;;
61015;SDS011;46902;52.920;6.536;2023-03-24T08:48:20;22.13;;;4.25;;
61015;SDS011;46902;52.920;6.536;2023-03-24T08:50:47;23.17;;;4.00;;
61015;SDS011;46902;52.920;6.536;2023-03-24T08:53:12;16.80;;;3.88;;
61015;SDS011;46902;52.920;6.536;2023-03-24T08:55:38;22.23;;;3.70;;
61015;SDS011;46902;52.920;6.536;2023-03-24T08:58:07;24.33;;;3.90;;
61015;SDS011;46902;52.920;6.536;2023-03-24T09:00:36;19.85;;;3.60;;
61015;SDS011;46902;52.920;6.536;2023-03-24T09:03:02;19.27;;;3.58;;
61015;SDS011;46902;52.920;6.536;2023-03-24T09:05:30;17.55;;;3.58;;
61015;SDS011;46902;52.920;6.536;2023-03-24T09:07:57;23.13;;;3.92;;
61015;SDS011;46902;52.920;6.536;2023-03-24T09:10:24;21.58;;;4.22;;
61015;SDS011;46902;52.920;6.536;2023-03-24T09:12:50;19.98;;;3.40;;
61015;SDS011;46902;52.920;6.536;2023-03-24T09:15:16;21.67;;;4.68;;
61015;SDS011;46902;52.920;6.536;2023-03-24T09:17:42;16.58;;;3.58;;
61015;SDS011;46902;52.920;6.536;2023-03-24T09:20:10;15.02;;;3.10;;
61015;SDS011;46902;52.920;6.536;2023-03-24T09:22:38;20.90;;;4.40;;
61015;SDS011;46902;52.920;6.536;2023-03-24T09:25:08;19.38;;;3.63;;
61015;SDS011;46902;52.920;6.536;2023-03-24T09:27:35;17.25;;;3.45;;
61015;SDS011;46902;52.920;6.536;2023-03-24T09:30:01;17.92;;;3.17;;
61015;SDS011;46902;52.920;6.536;2023-03-24T09:32:27;19.35;;;4.88;;
61015;SDS011;46902;52.920;6.536;2023-03-24T09:34:53;23.35;;;3.83;;
61015;SDS011;46902;52.920;6.536;2023-03-24T09:37:19;17.85;;;3.47;;
61015;SDS011;46902;52.920;6.536;2023-03-24T09:39:44;17.95;;;3.35;;
61015;SDS011;46902;52.920;6.536;2023-03-24T09:42:23;17.08;;;3.90;;
61015;SDS011;46902;52.920;6.536;2023-03-24T09:44:52;17.13;;;3.30;;
61015;SDS011;46902;52.920;6.536;2023-03-24T09:47:25;19.83;;;3.70;;
61015;SDS011;46902;52.920;6.536;2023-03-24T09:50:55;21.00;;;4.70;;
61015;SDS011;46902;52.920;6.536;2023-03-24T09:53:28;23.25;;;4.00;;
61015;SDS011;46902;52.920;6.536;2023-03-24T09:56:15;21.65;;;3.50;;
61015;SDS011;46902;52.920;6.536;2023-03-24T09:58:42;19.40;;;4.63;;
61015;SDS011;46902;52.920;6.536;2023-03-24T10:01:12;16.08;;;3.10;;
61015;SDS011;46902;52.920;6.536;2023-03-24T10:03:40;17.55;;;3.33;;
61015;SDS011;46902;52.920;6.536;2023-03-24T10:06:20;16.80;;;4.00;;
61015;SDS011;46902;52.920;6.536;2023-03-24T10:20:03;15.05;;;3.63;;
61015;SDS011;46902;52.920;6.536;2023-03-24T10:31:41;14.88;;;2.95;;
61015;SDS011;46902;52.920;6.536;2023-03-24T10:34:11;16.02;;;2.90;;
61015;SDS011;46902;52.920;6.536;2023-03-24T10:36:37;15.85;;;3.28;;
61015;SDS011;46902;52.920;6.536;2023-03-24T10:39:03;13.80;;;2.83;;
61015;SDS011;46902;52.920;6.536;2023-03-24T10:41:30;14.73;;;3.40;;
61015;SDS011;46902;52.920;6.536;2023-03-24T10:43:57;15.32;;;3.17;;
61015;SDS011;46902;52.920;6.536;2023-03-24T10:46:26;16.27;;;3.58;;
61015;SDS011;46902;52.920;6.536;2023-03-24T10:51:36;19.02;;;3.20;;
61015;SDS011;46902;52.920;6.536;2023-03-24T10:56:45;16.92;;;2.88;;
61015;SDS011;46902;52.920;6.536;2023-03-24T10:59:26;11.07;;;2.75;;
61015;SDS011;46902;52.920;6.536;2023-03-24T11:04:38;14.35;;;3.33;;
61015;SDS011;46902;52.920;6.536;2023-03-24T11:07:12;15.65;;;3.40;;
61015;SDS011;46902;52.920;6.536;2023-03-24T11:10:06;14.48;;;3.28;;
61015;SDS011;46902;52.920;6.536;2023-03-24T11:12:31;10.68;;;2.55;;
61015;SDS011;46902;52.920;6.536;2023-03-24T11:17:43;13.63;;;3.42;;
61015;SDS011;46902;52.920;6.536;2023-03-24T11:20:16;9.73;;;2.10;;
61015;SDS011;46902;52.920;6.536;2023-03-24T11:22:54;10.35;;;2.13;;
61015;SDS011;46902;52.920;6.536;2023-03-24T11:25:28;6.97;;;1.77;;
61015;SDS011;46902;52.920;6.536;2023-03-24T11:27:59;10.40;;;2.45;;
61015;SDS011;46902;52.920;6.536;2023-03-24T11:30:28;10.75;;;2.58;;
61015;SDS011;46902;52.920;6.536;2023-03-24T11:32:58;11.43;;;2.50;;
61015;SDS011;46902;52.920;6.536;2023-03-24T11:35:25;9.93;;;2.45;;
61015;SDS011;46902;52.920;6.536;2023-03-24T11:37:52;12.85;;;2.55;;
61015;SDS011;46902;52.920;6.536;2023-03-24T11:40:21;12.43;;;2.22;;
61015;SDS011;46902;52.920;6.536;2023-03-24T11:42:59;15.88;;;2.90;;
61015;SDS011;46902;52.920;6.536;2023-03-24T11:45:28;10.88;;;2.42;;
61015;SDS011;46902;52.920;6.536;2023-03-24T11:48:26;11.52;;;2.65;;
61015;SDS011;46902;52.920;6.536;2023-03-24T11:50:54;10.80;;;2.50;;
61015;SDS011;46902;52.920;6.536;2023-03-24T11:53:45;11.52;;;2.75;;
61015;SDS011;46902;52.920;6.536;2023-03-24T11:56:15;14.27;;;2.63;;
61015;SDS011;46902;52.920;6.536;2023-03-24T11:58:55;15.25;;;2.58;;
61015;SDS011;46902;52.920;6.536;2023-03-24T12:02:00;16.02;;;3.13;;
61015;SDS011;46902;52.920;6.536;2023-03-24T12:07:26;12.48;;;2.88;;
61015;SDS011;46902;52.920;6.536;2023-03-24T12:10:04;16.33;;;3.13;;
61015;SDS011;46902;52.920;6.536;2023-03-24T12:12:39;14.13;;;2.50;;
61015;SDS011;46902;52.920;6.536;2023-03-24T12:15:30;14.32;;;3.08;;
61015;SDS011;46902;52.920;6.536;2023-03-24T12:20:46;17.30;;;2.75;;
61015;SDS011;46902;52.920;6.536;2023-03-24T12:26:16;12.32;;;2.35;;
61015;SDS011;46902;52.920;6.536;2023-03-24T12:28:57;17.25;;;2.67;;
61015;SDS011;46902;52.920;6.536;2023-03-24T12:37:04;10.38;;;2.20;;
61015;SDS011;46902;52.920;6.536;2023-03-24T12:39:41;10.00;;;2.05;;
61015;SDS011;46902;52.920;6.536;2023-03-24T12:42:14;10.13;;;1.90;;
61015;SDS011;46902;52.920;6.536;2023-03-24T12:47:28;11.15;;;2.42;;
61015;SDS011;46902;52.920;6.536;2023-03-24T12:50:02;11.80;;;2.40;;
61015;SDS011;46902;52.920;6.536;2023-03-24T13:01:27;10.85;;;2.55;;
61015;SDS011;46902;52.920;6.536;2023-03-24T13:07:01;11.48;;;3.25;;
61015;SDS011;46902;52.920;6.536;2023-03-24T13:09:51;14.32;;;2.63;;
61015;SDS011;46902;52.920;6.536;2023-03-24T13:12:27;11.38;;;2.42;;
61015;SDS011;46902;52.920;6.536;2023-03-24T13:20:02;13.40;;;2.78;;
61015;SDS011;46902;52.920;6.536;2023-03-24T13:22:31;15.02;;;2.83;;
61015;SDS011;46902;52.920;6.536;2023-03-24T13:25:00;13.35;;;2.85;;
61015;SDS011;46902;52.920;6.536;2023-03-24T13:27:31;14.32;;;3.03;;
61015;SDS011;46902;52.920;6.536;2023-03-24T13:32:57;12.40;;;2.20;;
61015;SDS011;46902;52.920;6.536;2023-03-24T13:40:54;10.38;;;2.30;;
61015;SDS011;46902;52.920;6.536;2023-03-24T13:43:24;16.25;;;3.10;;
61015;SDS011;46902;52.920;6.536;2023-03-24T13:45:57;11.30;;;3.00;;
61015;SDS011;46902;52.920;6.536;2023-03-24T13:48:30;14.77;;;3.08;;
61015;SDS011;46902;52.920;6.536;2023-03-24T13:56:23;13.45;;;2.70;;
61015;SDS011;46902;52.920;6.536;2023-03-24T14:01:30;12.55;;;2.53;;
61015;SDS011;46902;52.920;6.536;2023-03-24T14:06:53;11.50;;;2.72;;
61015;SDS011;46902;52.920;6.536;2023-03-24T14:09:29;12.20;;;2.63;;
61015;SDS011;46902;52.920;6.536;2023-03-24T14:14:27;11.50;;;2.38;;
61015;SDS011;46902;52.920;6.536;2023-03-24T14:22:08;15.60;;;2.90;;
61015;SDS011;46902;52.920;6.536;2023-03-24T14:27:39;11.98;;;2.58;;
61015;SDS011;46902;52.920;6.536;2023-03-24T14:32:46;12.60;;;2.67;;
61015;SDS011;46902;52.920;6.536;2023-03-24T14:35:21;11.82;;;1.95;;
61015;SDS011;46902;52.920;6.536;2023-03-24T14:37:51;12.77;;;2.60;;
61015;SDS011;46902;52.920;6.536;2023-03-24T14:42:54;9.18;;;2.05;;
61015;SDS011;46902;52.920;6.536;2023-03-24T14:48:16;10.73;;;1.83;;
61015;SDS011;46902;52.920;6.536;2023-03-24T14:51:10;8.68;;;1.75;;
61015;SDS011;46902;52.920;6.536;2023-03-24T14:53:44;9.85;;;1.90;;
61015;SDS011;46902;52.920;6.536;2023-03-24T14:56:11;9.68;;;1.83;;
61015;SDS011;46902;52.920;6.536;2023-03-24T14:58:40;8.93;;;1.52;;
61015;SDS011;46902;52.920;6.536;2023-03-24T15:01:08;8.80;;;1.67;;
61015;SDS011;46902;52.920;6.536;2023-03-24T15:03:38;10.20;;;2.25;;
61015;SDS011;46902;52.920;6.536;2023-03-24T15:06:24;11.90;;;2.17;;
61015;SDS011;46902;52.920;6.536;2023-03-24T15:08:51;7.55;;;1.40;;
61015;SDS011;46902;52.920;6.536;2023-03-24T15:11:19;10.98;;;2.22;;
61015;SDS011;46902;52.920;6.536;2023-03-24T15:13:54;12.32;;;2.22;;
61015;SDS011;46902;52.920;6.536;2023-03-24T15:16:27;8.63;;;1.35;;
61015;SDS011;46902;52.920;6.536;2023-03-24T15:18:59;10.38;;;2.67;;
61015;SDS011;46902;52.920;6.536;2023-03-24T15:21:35;9.98;;;1.92;;
61015;SDS011;46902;52.920;6.536;2023-03-24T15:26:47;11.10;;;2.53;;
61015;SDS011;46902;52.920;6.536;2023-03-24T15:29:17;12.77;;;3.28;;
61015;SDS011;46902;52.920;6.536;2023-03-24T15:31:43;11.10;;;1.98;;
61015;SDS011;46902;52.920;6.536;2023-03-24T15:34:27;12.75;;;2.40;;
61015;SDS011;46902;52.920;6.536;2023-03-24T15:36:55;12.27;;;2.42;;
61015;SDS011;46902;52.920;6.536;2023-03-24T15:39:35;11.48;;;2.15;;
61015;SDS011;46902;52.920;6.536;2023-03-24T15:42:06;11.30;;;2.13;;
61015;SDS011;46902;52.920;6.536;2023-03-24T15:44:37;10.52;;;1.70;;
61015;SDS011;46902;52.920;6.536;2023-03-24T15:47:05;14.88;;;2.40;;
61015;SDS011;46902;52.920;6.536;2023-03-24T15:49:46;11.30;;;2.30;;
61015;SDS011;46902;52.920;6.536;2023-03-24T15:52:32;11.73;;;2.30;;
61015;SDS011;46902;52.920;6.536;2023-03-24T15:55:08;12.43;;;2.08;;
61015;SDS011;46902;52.920;6.536;2023-03-24T15:58:01;11.45;;;1.92;;
61015;SDS011;46902;52.920;6.536;2023-03-24T16:00:57;14.40;;;2.72;;
61015;SDS011;46902;52.920;6.536;2023-03-24T16:03:24;10.23;;;2.33;;
61015;SDS011;46902;52.920;6.536;2023-03-24T16:05:50;11.73;;;2.05;;
61015;SDS011;46902;52.920;6.536;2023-03-24T16:10:59;12.77;;;2.65;;
61015;SDS011;46902;52.920;6.536;2023-03-24T16:13:31;11.07;;;2.30;;
61015;SDS011;46902;52.920;6.536;2023-03-24T16:18:45;10.95;;;2.10;;
61015;SDS011;46902;52.920;6.536;2023-03-24T16:21:20;10.95;;;1.90;;
61015;SDS011;46902;52.920;6.536;2023-03-24T16:23:48;11.75;;;2.05;;
61015;SDS011;46902;52.920;6.536;2023-03-24T16:26:16;11.05;;;1.90;;
61015;SDS011;46902;52.920;6.536;2023-03-24T16:28:42;10.98;;;1.88;;
61015;SDS011;46902;52.920;6.536;2023-03-24T16:31:16;8.63;;;1.77;;
61015;SDS011;46902;52.920;6.536;2023-03-24T16:33:47;11.00;;;1.80;;
61015;SDS011;46902;52.920;6.536;2023-03-24T16:36:13;8.73;;;1.70;;
61015;SDS011;46902;52.920;6.536;2023-03-24T16:38:39;7.50;;;1.40;;
61015;SDS011;46902;52.920;6.536;2023-03-24T16:41:05;10.45;;;1.67;;
61015;SDS011;46902;52.920;6.536;2023-03-24T16:43:35;9.77;;;1.58;;
61015;SDS011;46902;52.920;6.536;2023-03-24T16:46:01;11.70;;;2.25;;
61015;SDS011;46902;52.920;6.536;2023-03-24T16:48:27;9.18;;;1.50;;
61015;SDS011;46902;52.920;6.536;2023-03-24T16:50:53;8.25;;;1.38;;
61015;SDS011;46902;52.920;6.536;2023-03-24T16:53:20;9.50;;;1.58;;
61015;SDS011;46902;52.920;6.536;2023-03-24T16:55:45;5.47;;;0.88;;
61015;SDS011;46902;52.920;6.536;2023-03-24T16:58:12;6.15;;;1.40;;
61015;SDS011;46902;52.920;6.536;2023-03-24T17:00:40;7.53;;;1.50;;
61015;SDS011;46902;52.920;6.536;2023-03-24T17:03:12;10.20;;;1.50;;
61015;SDS011;46902;52.920;6.536;2023-03-24T17:05:42;6.13;;;1.23;;
61015;SDS011;46902;52.920;6.536;2023-03-24T17:08:13;7.47;;;1.20;;
61015;SDS011;46902;52.920;6.536;2023-03-24T17:10:41;9.20;;;1.67;;
61015;SDS011;46902;52.920;6.536;2023-03-24T17:13:08;8.73;;;1.25;;
61015;SDS011;46902;52.920;6.536;2023-03-24T17:15:40;5.57;;;1.35;;
61015;SDS011;46902;52.920;6.536;2023-03-24T17:18:05;8.30;;;1.40;;
61015;SDS011;46902;52.920;6.536;2023-03-24T17:20:32;10.93;;;2.20;;
61015;SDS011;46902;52.920;6.536;2023-03-24T17:22:59;9.98;;;1.77;;
61015;SDS011;46902;52.920;6.536;2023-03-24T17:25:25;13.13;;;2.40;;
61015;SDS011;46902;52.920;6.536;2023-03-24T17:27:53;10.40;;;2.13;;
61015;SDS011;46902;52.920;6.536;2023-03-24T17:30:21;9.95;;;2.38;;
61015;SDS011;46902;52.920;6.536;2023-03-24T17:32:48;11.00;;;2.17;;
61015;SDS011;46902;52.920;6.536;2023-03-24T17:35:15;11.35;;;1.77;;
61015;SDS011;46902;52.920;6.536;2023-03-24T17:37:42;9.45;;;2.30;;
61015;SDS011;46902;52.920;6.536;2023-03-24T17:40:09;10.80;;;2.10;;
61015;SDS011;46902;52.920;6.536;2023-03-24T17:42:36;11.50;;;2.53;;
61015;SDS011;46902;52.920;6.536;2023-03-24T17:45:05;12.10;;;1.92;;
61015;SDS011;46902;52.920;6.536;2023-03-24T17:47:32;8.90;;;2.10;;
61015;SDS011;46902;52.920;6.536;2023-03-24T17:49:58;13.18;;;1.70;;
61015;SDS011;46902;52.920;6.536;2023-03-24T17:52:24;11.38;;;2.22;;
61015;SDS011;46902;52.920;6.536;2023-03-24T17:54:49;11.70;;;1.83;;
61015;SDS011;46902;52.920;6.536;2023-03-24T17:57:15;8.63;;;1.67;;